sensor_id;sensor_type;location;lat;lon;timestamp;P1;P2;P0
59179;PMS7003;44956;52.422;20.818;2023-04-30T00:01:39;37.50;36.00;24.00
59179;PMS7003;44956;52.422;20.818;2023-04-30T00:04:42;37.25;36.00;24.50
59179;PMS7003;44956;52.422;20.818;2023-04-30T00:07:44;44.50;38.50;25.00
59179;PMS7003;44956;52.422;20.818;2023-04-30T00:10:47;39.25;37.00;25.25
59179;PMS7003;44956;52.422;20.818;2023-04-30T00:13:50;39.50;36.25;24.00
59179;PMS7003;44956;52.422;20.818;2023-04-30T00:16:53;38.25;36.00;25.00
59179;PMS7003;44956;52.422;20.818;2023-04-30T00:19:55;32.50;32.50;24.00
59179;PMS7003;44956;52.422;20.818;2023-04-30T00:22:58;38.75;36.25;24.50
59179;PMS7003;44956;52.422;20.818;2023-04-30T00:26:01;47.00;38.25;26.00
59179;PMS7003;44956;52.422;20.818;2023-04-30T00:29:03;47.25;36.25;24.25
59179;PMS7003;44956;52.422;20.818;2023-04-30T00:32:06;45.75;39.50;25.25
59179;PMS7003;44956;52.422;20.818;2023-04-30T00:35:08;42.75;38.00;24.50
59179;PMS7003;44956;52.422;20.818;2023-04-30T00:38:12;50.00;39.00;24.25
59179;PMS7003;44956;52.422;20.818;2023-04-30T00:41:15;44.75;40.25;26.00
59179;PMS7003;44956;52.422;20.818;2023-04-30T00:44:17;51.00;43.25;26.75
59179;PMS7003;44956;52.422;20.818;2023-04-30T00:47:20;43.25;39.75;25.25
59179;PMS7003;44956;52.422;20.818;2023-04-30T00:50:23;38.00;34.50;23.75
59179;PMS7003;44956;52.422;20.818;2023-04-30T00:53:26;47.75;39.25;24.00
59179;PMS7003;44956;52.422;20.818;2023-04-30T00:56:28;44.50;38.00;24.00
59179;PMS7003;44956;52.422;20.818;2023-04-30T00:59:32;48.50;38.00;26.00
59179;PMS7003;44956;52.422;20.818;2023-04-30T01:02:34;31.50;30.50;17.75
59179;PMS7003;44956;52.422;20.818;2023-04-30T01:05:37;42.50;37.75;25.25
59179;PMS7003;44956;52.422;20.818;2023-04-30T01:08:40;45.00;37.25;26.00
59179;PMS7003;44956;52.422;20.818;2023-04-30T01:11:55;42.00;37.75;24.00
59179;PMS7003;44956;52.422;20.818;2023-04-30T01:15:18;43.00;38.25;24.00
59179;PMS7003;44956;52.422;20.818;2023-04-30T01:18:32;38.00;36.00;24.00
59179;PMS7003;44956;52.422;20.818;2023-04-30T01:21:38;46.75;39.25;26.00
59179;PMS7003;44956;52.422;20.818;2023-04-30T01:28:05;40.00;37.00;24.75
59179;PMS7003;44956;52.422;20.818;2023-04-30T01:31:12;41.50;39.00;24.50
59179;PMS7003;44956;52.422;20.818;2023-04-30T01:34:15;41.25;36.25;24.00
59179;PMS7003;44956;52.422;20.818;2023-04-30T01:37:23;33.50;33.25;22.25
59179;PMS7003;44956;52.422;20.818;2023-04-30T01:53:52;28.50;28.50;18.25
59179;PMS7003;44956;52.422;20.818;2023-04-30T01:57:02;36.25;31.00;18.25
59179;PMS7003;44956;52.422;20.818;2023-04-30T02:00:07;33.50;29.00;19.00
59179;PMS7003;44956;52.422;20.818;2023-04-30T02:03:15;33.75;33.75;23.00
59179;PMS7003;44956;52.422;20.818;2023-04-30T02:06:18;32.00;29.75;19.00
59179;PMS7003;44956;52.422;20.818;2023-04-30T02:09:21;40.50;38.00;24.75
59179;PMS7003;44956;52.422;20.818;2023-04-30T02:12:25;42.25;36.00;22.50
59179;PMS7003;44956;52.422;20.818;2023-04-30T02:15:31;45.25;38.75;24.25
59179;PMS7003;44956;52.422;20.818;2023-04-30T02:18:34;49.50;40.25;24.75
59179;PMS7003;44956;52.422;20.818;2023-04-30T02:21:36;47.25;40.00;24.50
59179;PMS7003;44956;52.422;20.818;2023-04-30T02:24:39;50.75;41.50;28.00
59179;PMS7003;44956;52.422;20.818;2023-04-30T02:27:42;44.25;35.00;18.25
59179;PMS7003;44956;52.422;20.818;2023-04-30T02:30:44;51.25;42.00;27.25
59179;PMS7003;44956;52.422;20.818;2023-04-30T02:33:47;50.00;42.50;26.00
59179;PMS7003;44956;52.422;20.818;2023-04-30T02:36:50;47.25;40.25;27.00
59179;PMS7003;44956;52.422;20.818;2023-04-30T02:39:52;53.00;42.75;27.00
59179;PMS7003;44956;52.422;20.818;2023-04-30T02:42:57;44.75;39.50;24.75
59179;PMS7003;44956;52.422;20.818;2023-04-30T02:46:02;41.75;37.00;24.75
59179;PMS7003;44956;52.422;20.818;2023-04-30T02:49:05;40.50;36.00;24.00
59179;PMS7003;44956;52.422;20.818;2023-04-30T02:52:07;43.50;36.50;23.25
59179;PMS7003;44956;52.422;20.818;2023-04-30T02:55:11;42.50;37.00;22.75
59179;PMS7003;44956;52.422;20.818;2023-04-30T02:58:14;40.25;38.00;24.25
59179;PMS7003;44956;52.422;20.818;2023-04-30T03:01:17;36.25;36.25;23.00
59179;PMS7003;44956;52.422;20.818;2023-04-30T03:04:20;49.25;40.00;24.50
59179;PMS7003;44956;52.422;20.818;2023-04-30T03:07:22;41.00;37.25;25.00
59179;PMS7003;44956;52.422;20.818;2023-04-30T03:10:25;41.25;36.25;22.50
59179;PMS7003;44956;52.422;20.818;2023-04-30T03:13:27;36.75;34.00;21.00
59179;PMS7003;44956;52.422;20.818;2023-04-30T03:16:30;37.25;33.75;21.00
59179;PMS7003;44956;52.422;20.818;2023-04-30T03:19:33;46.75;34.25;20.50
59179;PMS7003;44956;52.422;20.818;2023-04-30T03:22:37;30.75;27.25;17.00
59179;PMS7003;44956;52.422;20.818;2023-04-30T03:25:39;30.50;27.00;15.00
59179;PMS7003;44956;52.422;20.818;2023-04-30T03:28:42;25.50;21.00;15.00
59179;PMS7003;44956;52.422;20.818;2023-04-30T03:31:44;25.00;21.75;15.50
59179;PMS7003;44956;52.422;20.818;2023-04-30T03:34:47;19.50;19.50;13.00
59179;PMS7003;44956;52.422;20.818;2023-04-30T03:37:50;29.25;23.75;13.50
59179;PMS7003;44956;52.422;20.818;2023-04-30T03:40:52;19.25;18.75;12.00
59179;PMS7003;44956;52.422;20.818;2023-04-30T03:43:55;22.75;20.00;12.00
59179;PMS7003;44956;52.422;20.818;2023-04-30T03:46:57;25.25;23.50;14.50
59179;PMS7003;44956;52.422;20.818;2023-04-30T03:50:01;24.50;20.50;15.00
59179;PMS7003;44956;52.422;20.818;2023-04-30T03:53:04;16.75;16.75;11.25
59179;PMS7003;44956;52.422;20.818;2023-04-30T03:56:07;23.75;22.50;15.00
59179;PMS7003;44956;52.422;20.818;2023-04-30T03:59:10;19.25;18.75;12.00
59179;PMS7003;44956;52.422;20.818;2023-04-30T04:02:13;22.00;20.25;13.50
59179;PMS7003;44956;52.422;20.818;2023-04-30T04:05:18;27.25;23.50;15.75
59179;PMS7003;44956;52.422;20.818;2023-04-30T04:08:20;25.25;24.25;16.00
59179;PMS7003;44956;52.422;20.818;2023-04-30T04:11:23;22.75;22.00;12.75
59179;PMS7003;44956;52.422;20.818;2023-04-30T04:14:26;27.75;24.75;15.75
59179;PMS7003;44956;52.422;20.818;2023-04-30T04:17:29;25.50;22.50;16.00
59179;PMS7003;44956;52.422;20.818;2023-04-30T04:20:32;27.25;26.50;17.75
59179;PMS7003;44956;52.422;20.818;2023-04-30T04:23:34;34.00;26.75;15.75
59179;PMS7003;44956;52.422;20.818;2023-04-30T04:26:37;27.00;26.00;16.00
59179;PMS7003;44956;52.422;20.818;2023-04-30T04:29:41;30.75;30.25;18.50
59179;PMS7003;44956;52.422;20.818;2023-04-30T04:32:43;26.00;25.00;13.75
59179;PMS7003;44956;52.422;20.818;2023-04-30T04:35:52;28.75;28.25;15.00
59179;PMS7003;44956;52.422;20.818;2023-04-30T04:38:54;25.75;25.50;16.50
59179;PMS7003;44956;52.422;20.818;2023-04-30T04:42:06;31.75;29.75;16.50
59179;PMS7003;44956;52.422;20.818;2023-04-30T04:45:09;28.75;27.00;19.00
59179;PMS7003;44956;52.422;20.818;2023-04-30T04:48:13;34.00;31.25;18.25
59179;PMS7003;44956;52.422;20.818;2023-04-30T04:51:16;29.75;27.00;16.50
59179;PMS7003;44956;52.422;20.818;2023-04-30T04:54:18;30.75;29.25;17.00
59179;PMS7003;44956;52.422;20.818;2023-04-30T04:57:22;35.50;33.00;16.75
59179;PMS7003;44956;52.422;20.818;2023-04-30T05:00:25;30.75;27.50;16.25
59179;PMS7003;44956;52.422;20.818;2023-04-30T05:03:29;29.00;26.50;17.00
59179;PMS7003;44956;52.422;20.818;2023-04-30T05:06:32;31.75;30.50;16.75
59179;PMS7003;44956;52.422;20.818;2023-04-30T05:09:35;31.50;29.00;18.25
59179;PMS7003;44956;52.422;20.818;2023-04-30T05:12:38;31.00;30.50;19.75
59179;PMS7003;44956;52.422;20.818;2023-04-30T05:15:40;32.75;30.00;20.50
59179;PMS7003;44956;52.422;20.818;2023-04-30T05:18:43;29.25;27.00;18.25
59179;PMS7003;44956;52.422;20.818;2023-04-30T05:21:45;41.75;37.25;21.00
59179;PMS7003;44956;52.422;20.818;2023-04-30T05:24:48;37.00;34.50;19.00
59179;PMS7003;44956;52.422;20.818;2023-04-30T05:27:52;30.50;30.50;19.00
59179;PMS7003;44956;52.422;20.818;2023-04-30T05:30:55;40.25;36.00;23.25
59179;PMS7003;44956;52.422;20.818;2023-04-30T05:33:57;39.75;36.00;21.50
59179;PMS7003;44956;52.422;20.818;2023-04-30T05:36:59;42.75;38.00;21.50
59179;PMS7003;44956;52.422;20.818;2023-04-30T05:40:02;42.50;37.00;22.00
59179;PMS7003;44956;52.422;20.818;2023-04-30T05:43:07;42.00;35.75;21.75
59179;PMS7003;44956;52.422;20.818;2023-04-30T05:46:10;38.25;37.00;24.75
59179;PMS7003;44956;52.422;20.818;2023-04-30T05:49:13;41.25;36.75;23.75
59179;PMS7003;44956;52.422;20.818;2023-04-30T05:52:15;44.50;37.00;21.75
59179;PMS7003;44956;52.422;20.818;2023-04-30T05:55:18;35.75;33.25;21.75
59179;PMS7003;44956;52.422;20.818;2023-04-30T05:58:21;36.00;35.50;21.25
59179;PMS7003;44956;52.422;20.818;2023-04-30T06:01:24;30.00;27.00;18.50
59179;PMS7003;44956;52.422;20.818;2023-04-30T06:04:27;29.75;27.75;18.75
59179;PMS7003;44956;52.422;20.818;2023-04-30T06:07:30;33.50;29.25;20.00
59179;PMS7003;44956;52.422;20.818;2023-04-30T06:10:32;28.25;25.25;15.25
59179;PMS7003;44956;52.422;20.818;2023-04-30T06:13:35;23.50;21.75;14.75
59179;PMS7003;44956;52.422;20.818;2023-04-30T06:16:37;26.50;22.75;15.25
59179;PMS7003;44956;52.422;20.818;2023-04-30T06:19:40;17.75;16.50;12.00
59179;PMS7003;44956;52.422;20.818;2023-04-30T06:22:43;16.25;13.25;10.00
59179;PMS7003;44956;52.422;20.818;2023-04-30T06:25:46;17.25;12.50;8.00
59179;PMS7003;44956;52.422;20.818;2023-04-30T06:28:48;14.50;11.25;7.50
59179;PMS7003;44956;52.422;20.818;2023-04-30T06:31:51;18.50;14.50;8.00
59179;PMS7003;44956;52.422;20.818;2023-04-30T06:34:54;16.75;13.00;8.75
59179;PMS7003;44956;52.422;20.818;2023-04-30T06:37:57;14.75;14.75;9.00
59179;PMS7003;44956;52.422;20.818;2023-04-30T06:41:00;14.25;13.00;9.00
59179;PMS7003;44956;52.422;20.818;2023-04-30T06:44:03;13.75;12.00;8.25
59179;PMS7003;44956;52.422;20.818;2023-04-30T06:47:06;19.75;18.75;12.00
59179;PMS7003;44956;52.422;20.818;2023-04-30T06:50:09;19.25;13.75;8.75
59179;PMS7003;44956;52.422;20.818;2023-04-30T06:53:14;14.25;12.25;8.75
59179;PMS7003;44956;52.422;20.818;2023-04-30T06:56:17;14.00;13.00;8.75
59179;PMS7003;44956;52.422;20.818;2023-04-30T06:59:23;12.25;12.25;8.00
59179;PMS7003;44956;52.422;20.818;2023-04-30T07:02:25;10.00;10.00;7.00
59179;PMS7003;44956;52.422;20.818;2023-04-30T07:05:29;10.25;10.25;7.00
59179;PMS7003;44956;52.422;20.818;2023-04-30T07:08:33;10.25;10.25;7.00
59179;PMS7003;44956;52.422;20.818;2023-04-30T07:11:35;10.00;10.00;5.50
59179;PMS7003;44956;52.422;20.818;2023-04-30T07:14:38;7.00;6.25;4.00
59179;PMS7003;44956;52.422;20.818;2023-04-30T07:17:41;8.25;8.25;5.50
59179;PMS7003;44956;52.422;20.818;2023-04-30T07:20:44;8.50;8.50;5.00
59179;PMS7003;44956;52.422;20.818;2023-04-30T07:23:46;9.75;9.00;6.25
59179;PMS7003;44956;52.422;20.818;2023-04-30T07:26:49;10.50;10.25;5.00
59179;PMS7003;44956;52.422;20.818;2023-04-30T07:29:53;10.75;9.00;5.00
59179;PMS7003;44956;52.422;20.818;2023-04-30T07:32:56;8.50;6.00;3.50
59179;PMS7003;44956;52.422;20.818;2023-04-30T07:35:59;12.75;12.50;6.00
59179;PMS7003;44956;52.422;20.818;2023-04-30T07:39:01;13.00;10.75;6.50
59179;PMS7003;44956;52.422;20.818;2023-04-30T07:42:05;15.25;12.00;7.50
59179;PMS7003;44956;52.422;20.818;2023-04-30T07:45:07;9.50;9.25;5.00
59179;PMS7003;44956;52.422;20.818;2023-04-30T07:48:10;9.75;9.75;5.00
59179;PMS7003;44956;52.422;20.818;2023-04-30T07:51:13;13.00;9.75;6.00
59179;PMS7003;44956;52.422;20.818;2023-04-30T07:54:16;9.00;8.00;5.00
59179;PMS7003;44956;52.422;20.818;2023-04-30T07:57:19;8.00;8.00;4.75
59179;PMS7003;44956;52.422;20.818;2023-04-30T08:00:22;3.75;3.75;1.00
59179;PMS7003;44956;52.422;20.818;2023-04-30T08:03:24;11.00;10.00;5.00
59179;PMS7003;44956;52.422;20.818;2023-04-30T08:06:27;11.50;11.00;6.00
59179;PMS7003;44956;52.422;20.818;2023-04-30T08:09:30;9.00;8.00;5.00
59179;PMS7003;44956;52.422;20.818;2023-04-30T08:12:34;11.75;10.75;6.00
59179;PMS7003;44956;52.422;20.818;2023-04-30T08:15:38;7.50;7.50;5.00
59179;PMS7003;44956;52.422;20.818;2023-04-30T08:18:41;7.00;6.25;5.00
59179;PMS7003;44956;52.422;20.818;2023-04-30T08:21:45;8.75;8.75;4.00
59179;PMS7003;44956;52.422;20.818;2023-04-30T08:24:48;11.00;9.00;6.00
59179;PMS7003;44956;52.422;20.818;2023-04-30T08:27:52;12.00;10.50;7.50
59179;PMS7003;44956;52.422;20.818;2023-04-30T08:30:55;12.00;11.50;7.00
59179;PMS7003;44956;52.422;20.818;2023-04-30T08:33:57;12.00;10.50;6.00
59179;PMS7003;44956;52.422;20.818;2023-04-30T08:37:00;10.00;9.00;6.00
59179;PMS7003;44956;52.422;20.818;2023-04-30T08:40:03;11.75;11.25;6.25
59179;PMS7003;44956;52.422;20.818;2023-04-30T08:43:07;7.50;7.00;5.00
59179;PMS7003;44956;52.422;20.818;2023-04-30T08:46:13;8.00;6.75;3.75
59179;PMS7003;44956;52.422;20.818;2023-04-30T08:49:18;6.50;6.50;3.50
59179;PMS7003;44956;52.422;20.818;2023-04-30T08:52:25;6.75;6.50;4.00
59179;PMS7003;44956;52.422;20.818;2023-04-30T08:55:30;6.25;5.75;4.00
59179;PMS7003;44956;52.422;20.818;2023-04-30T08:58:35;5.00;5.00;3.00
59179;PMS7003;44956;52.422;20.818;2023-04-30T09:01:39;8.75;5.50;4.00
59179;PMS7003;44956;52.422;20.818;2023-04-30T09:04:42;8.50;6.00;3.00
59179;PMS7003;44956;52.422;20.818;2023-04-30T09:07:45;5.33;5.00;4.00
59179;PMS7003;44956;52.422;20.818;2023-04-30T09:10:51;5.00;5.00;3.00
59179;PMS7003;44956;52.422;20.818;2023-04-30T09:13:56;5.67;5.67;3.67
59179;PMS7003;44956;52.422;20.818;2023-04-30T09:17:00;5.00;5.00;2.67
59179;PMS7003;44956;52.422;20.818;2023-04-30T09:20:07;5.33;5.00;3.33
59179;PMS7003;44956;52.422;20.818;2023-04-30T09:23:13;5.33;5.33;3.00
59179;PMS7003;44956;52.422;20.818;2023-04-30T09:26:18;3.00;3.00;2.33
59179;PMS7003;44956;52.422;20.818;2023-04-30T09:29:31;5.00;4.67;2.67
59179;PMS7003;44956;52.422;20.818;2023-04-30T09:32:53;4.67;4.33;2.00
59179;PMS7003;44956;52.422;20.818;2023-04-30T09:35:56;4.00;3.00;2.33
59179;PMS7003;44956;52.422;20.818;2023-04-30T09:39:06;5.25;5.00;4.00
59179;PMS7003;44956;52.422;20.818;2023-04-30T09:42:13;2.00;2.00;2.00
59179;PMS7003;44956;52.422;20.818;2023-04-30T09:45:16;5.00;5.00;2.33
59179;PMS7003;44956;52.422;20.818;2023-04-30T09:48:22;4.00;4.00;3.00
59179;PMS7003;44956;52.422;20.818;2023-04-30T09:51:27;6.00;4.00;2.00
59179;PMS7003;44956;52.422;20.818;2023-04-30T09:54:30;4.67;4.67;2.00
59179;PMS7003;44956;52.422;20.818;2023-04-30T09:57:33;3.00;3.00;2.00
59179;PMS7003;44956;52.422;20.818;2023-04-30T10:00:39;2.67;2.67;2.00
59179;PMS7003;44956;52.422;20.818;2023-04-30T10:03:42;4.00;4.00;2.00
59179;PMS7003;44956;52.422;20.818;2023-04-30T10:06:45;3.00;2.67;1.00
59179;PMS7003;44956;52.422;20.818;2023-04-30T10:09:49;3.00;3.00;2.00
59179;PMS7003;44956;52.422;20.818;2023-04-30T10:12:53;4.00;4.00;2.00
59179;PMS7003;44956;52.422;20.818;2023-04-30T10:16:00;6.00;4.50;2.75
59179;PMS7003;44956;52.422;20.818;2023-04-30T10:19:11;3.75;3.75;2.75
59179;PMS7003;44956;52.422;20.818;2023-04-30T10:22:17;2.75;2.75;2.00
59179;PMS7003;44956;52.422;20.818;2023-04-30T10:25:19;5.00;3.33;2.00
59179;PMS7003;44956;52.422;20.818;2023-04-30T10:28:24;3.00;2.67;2.00
59179;PMS7003;44956;52.422;20.818;2023-04-30T10:31:26;4.67;3.33;2.00
59179;PMS7003;44956;52.422;20.818;2023-04-30T10:34:52;3.00;3.00;1.33
59179;PMS7003;44956;52.422;20.818;2023-04-30T10:41:08;3.00;3.00;2.67
59179;PMS7003;44956;52.422;20.818;2023-04-30T10:44:11;2.00;2.00;2.00
59179;PMS7003;44956;52.422;20.818;2023-04-30T10:47:15;3.75;2.25;1.00
59179;PMS7003;44956;52.422;20.818;2023-04-30T10:50:21;4.25;3.25;2.25
59179;PMS7003;44956;52.422;20.818;2023-04-30T10:53:25;3.50;3.50;2.00
59179;PMS7003;44956;52.422;20.818;2023-04-30T10:56:32;5.50;3.00;2.00
59179;PMS7003;44956;52.422;20.818;2023-04-30T10:59:36;3.00;3.00;2.00
59179;PMS7003;44956;52.422;20.818;2023-04-30T11:02:40;4.00;2.00;1.00
59179;PMS7003;44956;52.422;20.818;2023-04-30T11:05:45;5.00;5.00;2.00
59179;PMS7003;44956;52.422;20.818;2023-04-30T11:08:48;5.00;3.33;2.00
59179;PMS7003;44956;52.422;20.818;2023-04-30T11:12:00;3.00;3.00;2.00
59179;PMS7003;44956;52.422;20.818;2023-04-30T11:15:05;4.33;3.00;2.00
59179;PMS7003;44956;52.422;20.818;2023-04-30T11:18:15;5.33;3.33;2.00
59179;PMS7003;44956;52.422;20.818;2023-04-30T11:21:20;5.33;4.00;2.00
59179;PMS7003;44956;52.422;20.818;2023-04-30T11:24:45;2.33;2.33;2.00
59179;PMS7003;44956;52.422;20.818;2023-04-30T11:27:55;4.00;4.00;3.00
59179;PMS7003;44956;52.422;20.818;2023-04-30T11:30:58;3.67;2.33;1.00
59179;PMS7003;44956;52.422;20.818;2023-04-30T11:34:02;2.33;2.33;2.00
59179;PMS7003;44956;52.422;20.818;2023-04-30T11:37:06;4.00;4.00;2.00
59179;PMS7003;44956;52.422;20.818;2023-04-30T11:40:18;2.33;2.33;1.67
59179;PMS7003;44956;52.422;20.818;2023-04-30T11:43:25;2.00;2.00;2.00
59179;PMS7003;44956;52.422;20.818;2023-04-30T11:46:32;1.00;1.00;1.00
59179;PMS7003;44956;52.422;20.818;2023-04-30T11:49:36;3.00;3.00;2.00
59179;PMS7003;44956;52.422;20.818;2023-04-30T11:52:39;2.67;2.00;1.00
59179;PMS7003;44956;52.422;20.818;2023-04-30T11:55:43;2.00;2.00;1.33
59179;PMS7003;44956;52.422;20.818;2023-04-30T11:58:46;3.00;3.00;2.00
59179;PMS7003;44956;52.422;20.818;2023-04-30T12:01:50;3.00;2.00;1.67
59179;PMS7003;44956;52.422;20.818;2023-04-30T12:04:55;3.67;2.00;1.67
59179;PMS7003;44956;52.422;20.818;2023-04-30T12:07:59;2.67;2.67;2.00
59179;PMS7003;44956;52.422;20.818;2023-04-30T12:11:17;2.67;2.67;2.00
59179;PMS7003;44956;52.422;20.818;2023-04-30T12:14:23;5.00;4.00;2.00
59179;PMS7003;44956;52.422;20.818;2023-04-30T12:17:32;4.33;4.33;2.00
59179;PMS7003;44956;52.422;20.818;2023-04-30T12:20:37;4.00;3.00;2.00
59179;PMS7003;44956;52.422;20.818;2023-04-30T12:23:40;4.00;3.00;2.00
59179;PMS7003;44956;52.422;20.818;2023-04-30T12:26:44;3.00;3.00;2.00
59179;PMS7003;44956;52.422;20.818;2023-04-30T12:29:47;2.00;2.00;2.00
59179;PMS7003;44956;52.422;20.818;2023-04-30T12:32:53;3.00;3.00;2.00
59179;PMS7003;44956;52.422;20.818;2023-04-30T12:35:59;5.00;3.00;2.00
59179;PMS7003;44956;52.422;20.818;2023-04-30T12:39:06;3.00;3.00;1.00
59179;PMS7003;44956;52.422;20.818;2023-04-30T12:42:10;2.00;2.00;1.00
59179;PMS7003;44956;52.422;20.818;2023-04-30T12:49:08;3.00;2.00;1.67
59179;PMS7003;44956;52.422;20.818;2023-04-30T12:52:12;1.67;1.67;1.00
59179;PMS7003;44956;52.422;20.818;2023-04-30T12:55:19;4.00;4.00;2.00
59179;PMS7003;44956;52.422;20.818;2023-04-30T12:58:22;2.67;2.00;1.00
59179;PMS7003;44956;52.422;20.818;2023-04-30T13:01:32;3.00;3.00;2.00
59179;PMS7003;44956;52.422;20.818;2023-04-30T13:04:46;2.00;2.00;1.00
59179;PMS7003;44956;52.422;20.818;2023-04-30T13:07:51;4.33;3.00;2.00
59179;PMS7003;44956;52.422;20.818;2023-04-30T13:11:03;2.75;2.75;1.75
59179;PMS7003;44956;52.422;20.818;2023-04-30T13:14:05;4.25;3.75;2.00
59179;PMS7003;44956;52.422;20.818;2023-04-30T13:17:08;3.50;3.00;2.00
59179;PMS7003;44956;52.422;20.818;2023-04-30T13:20:14;4.00;4.00;2.00
59179;PMS7003;44956;52.422;20.818;2023-04-30T13:23:17;2.75;2.75;1.00
59179;PMS7003;44956;52.422;20.818;2023-04-30T13:26:20;2.00;2.00;1.00
59179;PMS7003;44956;52.422;20.818;2023-04-30T13:29:24;4.00;4.00;1.00
59179;PMS7003;44956;52.422;20.818;2023-04-30T13:32:27;3.00;2.00;1.00
59179;PMS7003;44956;52.422;20.818;2023-04-30T13:35:30;2.00;2.00;1.33
59179;PMS7003;44956;52.422;20.818;2023-04-30T13:38:33;2.00;2.00;1.00
59179;PMS7003;44956;52.422;20.818;2023-04-30T13:41:35;2.50;2.50;1.00
59179;PMS7003;44956;52.422;20.818;2023-04-30T13:44:39;3.00;3.00;1.00
59179;PMS7003;44956;52.422;20.818;2023-04-30T13:47:41;2.00;2.00;1.00
59179;PMS7003;44956;52.422;20.818;2023-04-30T13:50:44;2.33;1.67;1.00
59179;PMS7003;44956;52.422;20.818;2023-04-30T13:53:47;3.67;3.00;2.00
59179;PMS7003;44956;52.422;20.818;2023-04-30T13:56:50;1.00;1.00;1.00
59179;PMS7003;44956;52.422;20.818;2023-04-30T13:59:52;3.00;3.00;2.00
59179;PMS7003;44956;52.422;20.818;2023-04-30T14:02:55;1.25;1.25;0.75
59179;PMS7003;44956;52.422;20.818;2023-04-30T14:05:58;2.50;2.00;1.00
59179;PMS7003;44956;52.422;20.818;2023-04-30T14:09:01;3.00;3.00;1.00
59179;PMS7003;44956;52.422;20.818;2023-04-30T14:12:04;3.25;1.00;1.00
59179;PMS7003;44956;52.422;20.818;2023-04-30T14:15:06;2.00;2.00;1.00
59179;PMS7003;44956;52.422;20.818;2023-04-30T14:18:11;2.25;1.75;1.00
59179;PMS7003;44956;52.422;20.818;2023-04-30T14:21:15;3.25;1.50;0.75
59179;PMS7003;44956;52.422;20.818;2023-04-30T14:24:18;2.00;2.00;1.00
59179;PMS7003;44956;52.422;20.818;2023-04-30T14:27:21;2.25;2.25;1.00
59179;PMS7003;44956;52.422;20.818;2023-04-30T14:30:24;3.75;2.00;1.00
59179;PMS7003;44956;52.422;20.818;2023-04-30T14:33:32;1.50;1.50;1.00
59179;PMS7003;44956;52.422;20.818;2023-04-30T14:36:35;3.75;3.00;2.00
59179;PMS7003;44956;52.422;20.818;2023-04-30T14:39:38;1.75;1.75;1.00
59179;PMS7003;44956;52.422;20.818;2023-04-30T14:42:40;1.00;1.00;0.00
59179;PMS7003;44956;52.422;20.818;2023-04-30T14:45:44;3.50;2.50;1.00
59179;PMS7003;44956;52.422;20.818;2023-04-30T14:48:47;3.00;2.00;1.50
59179;PMS7003;44956;52.422;20.818;2023-04-30T14:51:50;1.75;1.75;1.00
59179;PMS7003;44956;52.422;20.818;2023-04-30T14:54:55;2.00;2.00;1.00
59179;PMS7003;44956;52.422;20.818;2023-04-30T14:57:59;1.75;1.75;1.00
59179;PMS7003;44956;52.422;20.818;2023-04-30T15:01:01;2.00;2.00;1.00
59179;PMS7003;44956;52.422;20.818;2023-04-30T15:04:07;4.00;2.00;1.00
59179;PMS7003;44956;52.422;20.818;2023-04-30T15:07:10;2.50;2.00;1.00
59179;PMS7003;44956;52.422;20.818;2023-04-30T15:10:13;4.00;2.00;1.00
59179;PMS7003;44956;52.422;20.818;2023-04-30T15:13:16;2.50;2.50;1.00
59179;PMS7003;44956;52.422;20.818;2023-04-30T15:16:19;1.75;1.75;1.00
59179;PMS7003;44956;52.422;20.818;2023-04-30T15:19:23;2.25;2.25;2.00
59179;PMS7003;44956;52.422;20.818;2023-04-30T15:22:26;3.25;3.00;2.00
59179;PMS7003;44956;52.422;20.818;2023-04-30T15:25:28;3.75;2.75;1.00
59179;PMS7003;44956;52.422;20.818;2023-04-30T15:28:32;3.00;3.00;2.00
59179;PMS7003;44956;52.422;20.818;2023-04-30T15:31:34;6.00;3.25;1.75
59179;PMS7003;44956;52.422;20.818;2023-04-30T15:34:37;1.00;1.00;1.00
59179;PMS7003;44956;52.422;20.818;2023-04-30T15:37:40;4.00;2.25;1.00
59179;PMS7003;44956;52.422;20.818;2023-04-30T15:40:43;2.50;2.50;1.00
59179;PMS7003;44956;52.422;20.818;2023-04-30T15:43:46;3.25;2.25;1.00
59179;PMS7003;44956;52.422;20.818;2023-04-30T15:46:49;4.00;3.00;2.00
59179;PMS7003;44956;52.422;20.818;2023-04-30T15:49:52;6.50;3.00;1.00
59179;PMS7003;44956;52.422;20.818;2023-04-30T15:52:57;2.00;2.00;1.00
59179;PMS7003;44956;52.422;20.818;2023-04-30T15:56:00;3.75;3.00;2.00
59179;PMS7003;44956;52.422;20.818;2023-04-30T15:59:05;3.00;3.00;2.00
59179;PMS7003;44956;52.422;20.818;2023-04-30T16:02:08;3.25;3.00;2.00
59179;PMS7003;44956;52.422;20.818;2023-04-30T16:05:12;2.00;2.00;1.75
59179;PMS7003;44956;52.422;20.818;2023-04-30T16:08:15;3.75;2.00;1.25
59179;PMS7003;44956;52.422;20.818;2023-04-30T16:11:19;2.50;2.00;2.00
59179;PMS7003;44956;52.422;20.818;2023-04-30T16:14:24;6.00;2.00;1.00
59179;PMS7003;44956;52.422;20.818;2023-04-30T16:17:27;4.75;3.00;1.25
59179;PMS7003;44956;52.422;20.818;2023-04-30T16:20:35;3.00;3.00;2.00
59179;PMS7003;44956;52.422;20.818;2023-04-30T16:23:39;2.50;2.50;1.25
59179;PMS7003;44956;52.422;20.818;2023-04-30T16:26:42;8.00;4.00;2.00
59179;PMS7003;44956;52.422;20.818;2023-04-30T16:29:46;3.00;3.00;1.75
59179;PMS7003;44956;52.422;20.818;2023-04-30T16:32:49;2.00;2.00;1.00
59179;PMS7003;44956;52.422;20.818;2023-04-30T16:35:52;2.75;1.75;1.00
59179;PMS7003;44956;52.422;20.818;2023-04-30T16:38:56;2.75;2.75;1.50
59179;PMS7003;44956;52.422;20.818;2023-04-30T16:41:59;2.25;2.25;1.00
59179;PMS7003;44956;52.422;20.818;2023-04-30T16:45:04;2.75;2.75;1.00
59179;PMS7003;44956;52.422;20.818;2023-04-30T16:48:07;2.00;2.00;1.00
59179;PMS7003;44956;52.422;20.818;2023-04-30T16:51:10;3.00;3.00;2.00
59179;PMS7003;44956;52.422;20.818;2023-04-30T16:54:13;2.00;2.00;1.50
59179;PMS7003;44956;52.422;20.818;2023-04-30T16:57:15;2.00;2.00;1.00
59179;PMS7003;44956;52.422;20.818;2023-04-30T17:00:19;1.50;1.50;1.00
59179;PMS7003;44956;52.422;20.818;2023-04-30T17:03:23;3.00;3.00;2.00
59179;PMS7003;44956;52.422;20.818;2023-04-30T17:06:26;4.00;2.75;1.50
59179;PMS7003;44956;52.422;20.818;2023-04-30T17:09:29;5.00;4.00;2.00
59179;PMS7003;44956;52.422;20.818;2023-04-30T17:12:33;3.75;2.00;1.00
59179;PMS7003;44956;52.422;20.818;2023-04-30T17:15:36;2.25;2.25;1.25
59179;PMS7003;44956;52.422;20.818;2023-04-30T17:18:40;5.75;4.75;2.00
59179;PMS7003;44956;52.422;20.818;2023-04-30T17:21:43;3.50;3.50;2.00
59179;PMS7003;44956;52.422;20.818;2023-04-30T17:24:46;3.00;3.00;2.00
59179;PMS7003;44956;52.422;20.818;2023-04-30T17:27:50;3.75;3.75;2.00
59179;PMS7003;44956;52.422;20.818;2023-04-30T17:30:54;3.00;3.00;3.00
59179;PMS7003;44956;52.422;20.818;2023-04-30T17:33:57;3.25;3.25;2.25
59179;PMS7003;44956;52.422;20.818;2023-04-30T17:37:02;6.00;5.00;2.00
59179;PMS7003;44956;52.422;20.818;2023-04-30T17:40:06;4.75;4.00;2.00
59179;PMS7003;44956;52.422;20.818;2023-04-30T17:43:14;5.50;2.75;2.00
59179;PMS7003;44956;52.422;20.818;2023-04-30T17:46:17;3.25;3.25;2.00